Time;durP1;ratioP1;P1;durP2;ratioP2;P2;SDS_P1;SDS_P2;PMS_P1;PMS_P2;Temp;Humidity;BMP_temperature;BMP_pressure;BME280_temperature;BME280_humidity;BME280_pressure;Samples;Min_cycle;Max_cycle;Signal;HPM_P1;HPM_P2
2021/10/27 00:00:10;;;;;;;20.92;15.63;;;13.80;99.90;;;;;;5038289;28;20504;-91
2021/10/27 00:02:36;;;;;;;24.05;14.63;;;13.70;99.90;;;;;;5043517;28;20154;-92
2021/10/27 00:05:04;;;;;;;22.75;15.15;;;13.70;99.90;;;;;;5047276;28;20055;-92
2021/10/27 00:07:30;;;;;;;20.23;14.98;;;13.80;99.90;;;;;;5040723;28;20044;-92
2021/10/27 00:09:55;;;;;;;19.75;15.27;;;13.80;99.90;;;;;;5036596;28;20032;-91
2021/10/27 00:12:21;;;;;;;26.83;15.90;;;13.80;99.90;;;;;;5037202;28;20036;-92
2021/10/27 00:14:46;;;;;;;20.98;14.18;;;13.80;99.90;;;;;;5034531;28;20203;-91
2021/10/27 00:17:12;;;;;;;21.88;14.63;;;13.80;99.90;;;;;;5043221;28;20036;-91
2021/10/27 00:19:37;;;;;;;26.42;16.10;;;13.80;99.90;;;;;;5050753;28;20024;-92
2021/10/27 00:22:03;;;;;;;18.02;14.30;;;13.80;99.90;;;;;;5035193;28;20033;-92
2021/10/27 00:24:28;;;;;;;20.08;14.23;;;13.90;99.90;;;;;;5038739;28;20029;-92
2021/10/27 00:26:54;;;;;;;21.38;14.75;;;13.90;99.90;;;;;;5043297;28;20061;-91
2021/10/27 00:29:20;;;;;;;22.35;16.25;;;13.90;99.90;;;;;;5041475;28;20580;-92
2021/10/27 00:31:45;;;;;;;23.60;16.90;;;13.90;99.90;;;;;;5038526;28;20124;-92
2021/10/27 00:34:11;;;;;;;26.17;16.05;;;13.90;99.90;;;;;;5039057;28;20472;-92
2021/10/27 00:36:36;;;;;;;24.63;15.55;;;13.90;99.90;;;;;;5042591;28;20025;-92
2021/10/27 00:39:03;;;;;;;22.80;16.05;;;13.90;99.90;;;;;;5038542;28;20017;-92
2021/10/27 00:41:28;;;;;;;23.02;14.88;;;13.90;99.90;;;;;;5045043;28;20032;-91
2021/10/27 00:43:54;;;;;;;21.42;15.68;;;13.90;99.90;;;;;;5038223;28;20017;-91
2021/10/27 00:46:24;;;;;;;24.52;16.23;;;13.90;99.90;;;;;;5038442;28;20029;-91
2021/10/27 00:48:50;;;;;;;24.80;15.50;;;13.90;99.90;;;;;;5038492;28;20025;-92
2021/10/27 00:51:16;;;;;;;21.45;14.85;;;13.90;99.90;;;;;;5047579;28;20064;-92
2021/10/27 00:53:44;;;;;;;18.85;14.45;;;13.90;99.90;;;;;;5040920;28;20037;-91
2021/10/27 00:56:10;;;;;;;21.65;14.82;;;13.90;99.90;;;;;;5038581;28;20029;-91
2021/10/27 00:58:36;;;;;;;22.92;15.13;;;13.90;99.90;;;;;;5055444;28;20388;-92
2021/10/27 01:01:03;;;;;;;23.05;14.93;;;13.90;99.90;;;;;;5037373;28;20041;-91
2021/10/27 01:03:28;;;;;;;19.83;14.43;;;13.90;99.90;;;;;;5043691;28;20112;-92
2021/10/27 01:05:54;;;;;;;19.75;13.43;;;13.80;99.90;;;;;;5039106;28;20056;-92
2021/10/27 01:08:21;;;;;;;17.83;13.32;;;13.90;99.90;;;;;;5043683;28;20029;-92
2021/10/27 01:10:47;;;;;;;17.63;13.13;;;13.80;99.90;;;;;;5054799;28;21717;-91
2021/10/27 01:13:12;;;;;;;16.70;13.15;;;13.90;99.90;;;;;;5053603;28;20021;-91
2021/10/27 01:15:39;;;;;;;18.33;12.98;;;13.90;99.90;;;;;;5046870;28;20037;-91
2021/10/27 01:18:06;;;;;;;21.33;13.50;;;13.90;99.90;;;;;;5026442;28;20528;-91
2021/10/27 01:20:31;;;;;;;15.75;11.07;;;13.90;99.90;;;;;;5044277;28;20127;-90
2021/10/27 01:22:57;;;;;;;16.33;11.68;;;13.90;99.90;;;;;;5051155;28;20552;-93
2021/10/27 01:25:23;;;;;;;20.58;12.18;;;13.90;99.90;;;;;;5037605;28;20032;-92
2021/10/27 01:27:48;;;;;;;18.83;10.70;;;13.90;99.90;;;;;;5042316;28;20032;-92
2021/10/27 01:30:17;;;;;;;16.70;10.70;;;13.90;99.90;;;;;;5041383;28;20025;-92
2021/10/27 01:32:43;;;;;;;15.07;10.07;;;13.90;99.90;;;;;;5037735;28;20072;-91
2021/10/27 01:35:09;;;;;;;17.20;10.52;;;14.00;99.90;;;;;;5024193;28;20026;-91
2021/10/27 01:37:37;;;;;;;15.82;9.93;;;14.00;99.90;;;;;;5049432;28;20108;-91
2021/10/27 01:40:08;;;;;;;14.45;9.10;;;14.00;99.90;;;;;;5029393;28;20036;-93
2021/10/27 01:42:34;;;;;;;14.10;8.50;;;14.00;99.90;;;;;;5055512;28;20021;-92
2021/10/27 01:45:00;;;;;;;12.38;9.07;;;14.00;99.90;;;;;;5055252;28;20047;-90
2021/10/27 01:47:26;;;;;;;14.45;9.02;;;14.00;99.90;;;;;;5037120;28;20025;-92
2021/10/27 01:49:51;;;;;;;22.15;9.57;;;14.00;99.90;;;;;;5052644;28;20491;-92
2021/10/27 01:52:17;;;;;;;15.52;9.05;;;14.00;99.90;;;;;;5037471;28;20041;-93
2021/10/27 01:54:43;;;;;;;14.20;9.50;;;14.00;99.90;;;;;;5037404;28;20801;-92
2021/10/27 01:57:09;;;;;;;13.57;9.18;;;14.00;99.90;;;;;;5040017;28;20025;-92
2021/10/27 01:59:35;;;;;;;11.43;8.25;;;14.00;99.90;;;;;;5036849;28;20478;-91
2021/10/27 02:02:01;;;;;;;14.68;8.93;;;14.00;99.90;;;;;;5035864;28;20045;-92
2021/10/27 02:04:26;;;;;;;13.02;8.82;;;14.00;99.90;;;;;;5044864;28;20025;-92
2021/10/27 02:06:52;;;;;;;19.90;8.35;;;14.00;99.90;;;;;;5032079;28;20112;-92
2021/10/27 02:09:18;;;;;;;13.50;8.23;;;14.00;99.90;;;;;;5042594;28;20111;-93
2021/10/27 02:11:43;;;;;;;11.88;8.10;;;14.00;99.90;;;;;;5038279;28;20032;-91
2021/10/27 02:14:09;;;;;;;12.25;7.15;;;14.00;99.90;;;;;;5037151;28;20032;-92
2021/10/27 02:16:35;;;;;;;15.63;8.00;;;14.00;99.90;;;;;;5036240;28;20025;-93
2021/10/27 02:19:00;;;;;;;11.95;7.78;;;14.10;99.90;;;;;;5043624;28;20021;-92
2021/10/27 02:21:26;;;;;;;15.82;7.65;;;14.00;99.90;;;;;;5042408;28;20064;-92
2021/10/27 02:23:52;;;;;;;13.05;7.50;;;14.00;99.90;;;;;;5054315;28;20020;-93
2021/10/27 02:26:21;;;;;;;11.75;6.28;;;14.00;99.90;;;;;;5036881;28;20094;-91
2021/10/27 02:28:47;;;;;;;15.48;6.47;;;14.10;99.90;;;;;;5045525;28;20025;-92
2021/10/27 02:31:12;;;;;;;11.80;5.88;;;14.10;99.90;;;;;;5035371;28;20492;-92
2021/10/27 02:33:38;;;;;;;11.13;5.57;;;14.00;99.90;;;;;;5036731;28;20397;-92
2021/10/27 02:36:04;;;;;;;13.00;5.60;;;14.10;99.90;;;;;;5053545;28;20388;-92
2021/10/27 02:38:30;;;;;;;14.13;6.03;;;14.00;99.90;;;;;;5047868;28;20029;-91
2021/10/27 02:40:56;;;;;;;10.43;5.30;;;14.10;99.90;;;;;;5053072;28;20029;-91
2021/10/27 02:43:21;;;;;;;7.80;5.20;;;14.10;99.90;;;;;;5036572;28;20032;-91
2021/10/27 02:45:47;;;;;;;11.80;4.55;;;14.10;99.90;;;;;;5035621;28;20025;-92
2021/10/27 02:48:13;;;;;;;8.20;4.57;;;14.10;99.90;;;;;;5036155;28;20037;-91
2021/10/27 02:50:40;;;;;;;10.85;4.53;;;14.10;99.90;;;;;;5036000;28;20018;-91
2021/10/27 02:53:06;;;;;;;15.85;5.18;;;14.10;99.90;;;;;;5035612;28;20068;-91
2021/10/27 02:55:32;;;;;;;12.50;4.45;;;14.10;99.90;;;;;;5053466;28;20035;-91
2021/10/27 02:58:00;;;;;;;11.52;4.75;;;14.10;99.90;;;;;;5035302;28;20591;-92
2021/10/27 03:00:26;;;;;;;9.75;4.30;;;14.10;99.90;;;;;;5037416;28;20499;-90
2021/10/27 03:02:52;;;;;;;10.23;4.45;;;14.10;99.90;;;;;;5053156;28;20041;-91
2021/10/27 03:05:17;;;;;;;11.27;3.65;;;14.00;99.90;;;;;;5038437;28;20017;-92
2021/10/27 03:07:43;;;;;;;10.40;4.50;;;14.10;99.90;;;;;;5042590;28;20028;-91
2021/10/27 03:10:08;;;;;;;9.40;3.90;;;14.10;99.90;;;;;;5047675;28;20119;-92
2021/10/27 03:12:34;;;;;;;9.00;3.97;;;14.00;99.90;;;;;;5040337;28;20489;-90
2021/10/27 03:15:00;;;;;;;9.18;3.85;;;14.10;99.90;;;;;;5053875;28;20075;-92
2021/10/27 03:17:25;;;;;;;9.52;3.75;;;14.10;99.90;;;;;;5035664;28;20044;-91
2021/10/27 03:19:51;;;;;;;11.70;3.50;;;14.10;99.90;;;;;;5035551;28;20021;-91
2021/10/27 03:22:17;;;;;;;9.93;3.70;;;14.10;99.90;;;;;;5052987;28;20077;-92
2021/10/27 03:24:42;;;;;;;10.35;3.33;;;14.10;99.90;;;;;;5051551;28;20021;-92
2021/10/27 03:27:08;;;;;;;12.93;3.78;;;14.10;99.90;;;;;;5053912;28;20028;-91
2021/10/27 03:29:33;;;;;;;10.10;3.15;;;14.10;99.90;;;;;;5048333;28;20024;-91
2021/10/27 03:31:59;;;;;;;10.23;2.80;;;14.00;99.90;;;;;;5050865;28;20397;-91
2021/10/27 03:34:25;;;;;;;7.45;2.75;;;14.00;99.90;;;;;;5036638;28;20396;-92
2021/10/27 03:36:51;;;;;;;8.32;3.05;;;14.00;99.90;;;;;;5036444;28;20052;-92
2021/10/27 03:39:17;;;;;;;7.15;3.35;;;14.00;99.90;;;;;;5053386;28;20023;-91
2021/10/27 03:41:43;;;;;;;8.52;2.97;;;14.00;99.90;;;;;;5052032;28;20107;-91
2021/10/27 03:44:08;;;;;;;7.13;2.47;;;14.10;99.90;;;;;;5048344;28;20518;-92
2021/10/27 03:46:34;;;;;;;9.55;2.53;;;14.10;99.90;;;;;;5035195;28;20020;-91
2021/10/27 03:49:00;;;;;;;8.95;2.78;;;14.00;99.90;;;;;;5034558;28;20017;-90
2021/10/27 03:51:26;;;;;;;8.18;2.20;;;14.10;99.90;;;;;;5047005;28;20051;-92
2021/10/27 03:53:52;;;;;;;8.70;2.53;;;14.10;99.90;;;;;;5041176;28;20021;-91
2021/10/27 03:56:19;;;;;;;6.38;2.88;;;14.10;99.90;;;;;;5044855;28;20024;-91
2021/10/27 03:58:45;;;;;;;10.18;2.65;;;14.10;99.90;;;;;;5035246;28;20025;-92
2021/10/27 04:01:11;;;;;;;9.48;2.58;;;14.10;99.90;;;;;;5033100;28;20053;-91
2021/10/27 04:03:36;;;;;;;11.32;2.80;;;14.10;99.90;;;;;;5030146;28;20033;-92
2021/10/27 04:06:02;;;;;;;10.82;2.45;;;14.10;99.90;;;;;;5036105;28;20032;-92
2021/10/27 04:08:28;;;;;;;6.13;2.50;;;14.10;99.90;;;;;;5040204;28;20029;-91
2021/10/27 04:10:53;;;;;;;10.05;2.28;;;14.20;99.90;;;;;;5048269;28;20061;-92
2021/10/27 04:13:20;;;;;;;10.68;2.92;;;14.20;99.90;;;;;;5034551;28;20120;-93
2021/10/27 04:15:46;;;;;;;6.93;2.30;;;14.20;99.90;;;;;;5043101;28;20040;-93
2021/10/27 04:18:12;;;;;;;7.75;2.83;;;14.20;99.90;;;;;;5033143;28;20405;-92
2021/10/27 04:20:38;;;;;;;7.95;2.65;;;14.10;99.90;;;;;;5040956;28;20025;-92
2021/10/27 04:23:06;;;;;;;10.82;2.40;;;14.20;99.90;;;;;;5031915;28;20029;-91
2021/10/27 04:25:31;;;;;;;8.75;2.40;;;14.20;99.90;;;;;;5056335;28;20060;-92
2021/10/27 04:27:57;;;;;;;9.73;2.50;;;14.20;99.90;;;;;;5034440;28;20029;-92
2021/10/27 04:30:23;;;;;;;6.50;2.42;;;14.20;99.90;;;;;;5033936;28;20097;-91
2021/10/27 04:32:48;;;;;;;9.93;2.90;;;14.20;99.90;;;;;;5052155;28;20128;-90
2021/10/27 04:35:15;;;;;;;10.77;3.20;;;14.20;99.90;;;;;;5035380;28;20028;-91
2021/10/27 04:37:43;;;;;;;7.35;2.58;;;14.10;99.90;;;;;;5052061;28;20025;-92
2021/10/27 04:40:15;;;;;;;7.95;2.72;;;14.10;99.90;;;;;;5035285;28;20075;-90
2021/10/27 04:42:41;;;;;;;9.10;2.40;;;14.10;99.90;;;;;;5036046;28;20060;-90
2021/10/27 04:45:08;;;;;;;10.82;2.78;;;14.10;99.90;;;;;;5034282;28;20032;-91
2021/10/27 04:47:35;;;;;;;7.97;2.40;;;14.10;99.90;;;;;;5033017;28;20025;-91
2021/10/27 04:50:00;;;;;;;9.50;2.92;;;14.10;99.90;;;;;;5033654;28;20473;-93
2021/10/27 04:52:26;;;;;;;9.38;2.80;;;14.10;99.90;;;;;;5054396;28;20055;-93
2021/10/27 04:54:52;;;;;;;10.48;2.40;;;14.10;99.90;;;;;;5038733;28;20104;-92
2021/10/27 04:57:18;;;;;;;5.53;1.95;;;14.20;99.90;;;;;;5042395;28;20046;-91
2021/10/27 04:59:44;;;;;;;6.32;1.95;;;14.10;99.90;;;;;;5038031;28;20075;-93
2021/10/27 05:02:13;;;;;;;9.52;2.92;;;14.10;99.90;;;;;;5034226;28;20505;-92
2021/10/27 05:04:38;;;;;;;7.28;2.38;;;14.10;99.90;;;;;;5040295;28;20071;-91
2021/10/27 05:07:05;;;;;;;7.72;2.50;;;14.10;99.90;;;;;;5031830;28;20033;-91
2021/10/27 05:09:31;;;;;;;7.70;2.38;;;14.10;99.90;;;;;;5047144;28;20029;-92
2021/10/27 05:11:57;;;;;;;7.97;2.50;;;14.10;99.90;;;;;;5041762;28;20037;-92
2021/10/27 05:14:23;;;;;;;8.60;3.15;;;14.10;99.90;;;;;;5037419;28;20025;-92
2021/10/27 05:16:48;;;;;;;6.88;2.03;;;14.10;99.90;;;;;;5038150;28;20503;-91
2021/10/27 05:19:14;;;;;;;8.85;2.80;;;14.10;99.90;;;;;;5037837;28;20029;-92
2021/10/27 05:21:39;;;;;;;7.65;2.60;;;14.10;99.90;;;;;;5033413;28;20084;-91
2021/10/27 05:24:05;;;;;;;7.30;2.40;;;14.10;99.90;;;;;;5031154;28;20059;-92
2021/10/27 05:26:31;;;;;;;9.68;2.70;;;14.10;99.90;;;;;;5039501;28;20025;-92
2021/10/27 05:28:56;;;;;;;7.80;2.40;;;14.00;99.90;;;;;;5041915;28;20041;-91
2021/10/27 05:31:22;;;;;;;7.07;2.30;;;14.00;99.90;;;;;;5033148;28;20037;-89
2021/10/27 05:33:48;;;;;;;6.72;2.35;;;14.10;99.90;;;;;;5047202;28;20485;-91
2021/10/27 05:36:13;;;;;;;6.20;2.47;;;14.00;99.90;;;;;;5056378;28;20056;-91
2021/10/27 05:38:39;;;;;;;10.55;2.10;;;14.00;99.90;;;;;;5037537;28;20510;-90
2021/10/27 05:41:05;;;;;;;9.98;2.88;;;14.00;99.90;;;;;;5037869;28;20476;-90
2021/10/27 05:43:32;;;;;;;6.60;2.90;;;14.00;99.90;;;;;;5037486;28;20028;-92
2021/10/27 05:45:58;;;;;;;9.45;2.70;;;14.00;99.90;;;;;;5037184;28;20120;-91
2021/10/27 05:48:28;;;;;;;7.28;2.17;;;14.00;99.90;;;;;;5040086;28;20536;-92
2021/10/27 05:56:19;;;;;;;9.07;3.10;;;13.90;99.90;;;;;;5057304;28;20036;-92
2021/10/27 05:58:45;;;;;;;8.25;3.10;;;13.90;99.90;;;;;;5057518;28;20043;-92
2021/10/27 06:01:11;;;;;;;7.63;2.88;;;13.90;99.90;;;;;;5039200;28;20079;-91
2021/10/27 06:03:37;;;;;;;9.15;3.30;;;13.90;99.90;;;;;;5036734;28;20025;-91
2021/10/27 06:06:02;;;;;;;10.38;2.60;;;13.90;99.90;;;;;;5038119;28;20035;-92
2021/10/27 06:08:28;;;;;;;10.82;3.55;;;13.90;99.90;;;;;;5038094;28;20024;-92
2021/10/27 06:10:57;;;;;;;10.23;4.05;;;13.90;99.90;;;;;;5039080;28;20033;-92
2021/10/27 06:13:30;;;;;;;9.32;3.80;;;13.80;99.90;;;;;;5054381;28;20028;-91
2021/10/27 06:15:56;;;;;;;11.25;3.25;;;13.90;99.90;;;;;;5047309;28;20542;-93
2021/10/27 06:18:25;;;;;;;14.10;5.53;;;13.80;99.90;;;;;;5038875;28;20029;-92
2021/10/27 06:20:51;;;;;;;8.32;4.05;;;13.80;99.90;;;;;;5053353;28;20029;-93
2021/10/27 06:23:16;;;;;;;12.70;5.13;;;13.80;99.90;;;;;;5055030;28;20032;-90
2021/10/27 06:25:42;;;;;;;8.10;4.32;;;13.80;99.90;;;;;;5041891;28;20024;-92
2021/10/27 06:28:11;;;;;;;11.07;4.07;;;13.70;99.90;;;;;;5057530;28;20040;-92
2021/10/27 06:30:51;;;;;;;12.43;4.03;;;13.70;99.90;;;;;;5057229;28;20013;-92
2021/10/27 06:35:51;;;;;;;10.65;4.95;;;13.60;99.90;;;;;;5056261;28;20033;-93
2021/10/27 06:46:38;;;;;;;14.23;5.57;;;13.60;99.90;;;;;;5055445;28;20074;-91
2021/10/27 06:49:04;;;;;;;16.58;5.05;;;13.60;99.90;;;;;;5036140;28;20068;-90
2021/10/27 06:51:29;;;;;;;10.43;4.85;;;13.60;99.90;;;;;;5056499;28;20044;-91
2021/10/27 06:53:55;;;;;;;12.23;5.72;;;13.60;99.90;;;;;;5038715;28;20105;-90
2021/10/27 06:56:22;;;;;;;18.02;5.47;;;13.60;99.90;;;;;;5048071;28;20025;-90
2021/10/27 07:01:21;;;;;;;12.20;5.07;;;13.50;99.90;;;;;;5054834;28;20485;-91
2021/10/27 07:17:13;;;;;;;13.73;5.47;;;13.20;99.90;;;;;;5050781;28;20032;-91
2021/10/27 07:19:39;;;;;;;15.63;5.57;;;13.10;99.90;;;;;;5039198;28;20029;-92
2021/10/27 07:22:06;;;;;;;10.77;5.90;;;13.10;99.90;;;;;;5041520;28;20048;-91
2021/10/27 07:24:31;;;;;;;13.45;5.78;;;13.10;99.90;;;;;;5046375;28;20476;-92
2021/10/27 07:27:02;;;;;;;12.50;5.47;;;13.10;99.90;;;;;;5032305;28;20060;-91
2021/10/27 07:29:27;;;;;;;12.48;5.97;;;13.10;99.90;;;;;;5035348;28;20029;-90
2021/10/27 07:31:53;;;;;;;11.90;5.97;;;13.10;99.90;;;;;;5034548;28;20030;-92
2021/10/27 07:34:28;;;;;;;14.93;6.07;;;13.10;99.90;;;;;;5035235;28;20053;-90
2021/10/27 07:42:23;;;;;;;10.68;5.60;;;13.00;99.90;;;;;;5053263;28;20465;-93
2021/10/27 07:44:48;;;;;;;13.85;7.00;;;13.00;99.90;;;;;;5036989;28;20093;-92
2021/10/27 07:47:14;;;;;;;12.65;5.90;;;13.00;99.90;;;;;;5036328;28;20473;-93
2021/10/27 07:49:40;;;;;;;12.93;6.20;;;13.00;99.90;;;;;;5035001;28;20032;-93
2021/10/27 07:52:06;;;;;;;14.88;6.20;;;12.90;99.90;;;;;;5031693;28;20103;-92
2021/10/27 07:54:33;;;;;;;11.13;5.97;;;12.90;99.90;;;;;;5050342;28;20021;-93
2021/10/27 07:56:59;;;;;;;8.63;5.93;;;12.80;99.90;;;;;;5054687;28;20100;-93
2021/10/27 07:59:24;;;;;;;11.73;6.05;;;12.80;99.90;;;;;;5030789;28;20114;-93
2021/10/27 08:01:50;;;;;;;15.55;6.40;;;12.80;99.90;;;;;;5034950;28;20103;-92
2021/10/27 08:04:15;;;;;;;13.70;6.10;;;12.90;99.90;;;;;;5033310;28;20025;-91
2021/10/27 08:06:43;;;;;;;16.48;6.82;;;13.00;99.90;;;;;;5038325;28;20023;-91
2021/10/27 08:09:09;;;;;;;12.77;6.43;;;13.10;99.90;;;;;;5051827;28;20481;-92
2021/10/27 08:11:34;;;;;;;11.57;5.32;;;13.20;99.90;;;;;;5033736;28;20048;-94
2021/10/27 08:14:00;;;;;;;11.82;6.10;;;13.30;99.90;;;;;;5041224;28;20112;-90
2021/10/27 08:16:25;;;;;;;12.35;6.70;;;13.30;99.90;;;;;;5021979;28;20029;-88
2021/10/27 08:18:51;;;;;;;9.52;6.25;;;13.50;99.90;;;;;;5017372;28;20026;-90
2021/10/27 08:21:16;;;;;;;11.27;6.30;;;13.60;99.90;;;;;;5028539;28;20030;-93
2021/10/27 08:23:44;;;;;;;14.23;6.78;;;13.70;99.90;;;;;;5028413;28;20025;-93
2021/10/27 08:26:14;;;;;;;15.07;6.70;;;13.70;99.90;;;;;;5032567;28;20413;-94
2021/10/27 08:28:42;;;;;;;10.40;6.47;;;13.80;99.90;;;;;;5033335;28;20515;-93
2021/10/27 08:36:20;;;;;;;;;;;14.20;99.90;;;;;;5034183;28;20026;-93
2021/10/27 08:38:50;;;;;;;10.68;6.65;;;14.30;99.90;;;;;;5033317;28;19906;-92
2021/10/27 08:41:16;;;;;;;14.00;7.78;;;14.40;99.90;;;;;;5033171;28;20030;-90
2021/10/27 08:43:42;;;;;;;13.00;7.05;;;14.30;99.90;;;;;;5035496;28;20030;-94
2021/10/27 08:46:11;;;;;;;13.55;6.65;;;14.40;99.90;;;;;;5037996;28;20071;-92
2021/10/27 08:48:37;;;;;;;9.70;6.50;;;14.50;99.90;;;;;;5033488;28;20037;-94
2021/10/27 08:51:08;;;;;;;11.40;7.45;;;14.50;99.90;;;;;;5036245;28;20018;-91
2021/10/27 08:53:36;;;;;;;13.75;7.45;;;14.60;99.90;;;;;;5031915;28;20025;-93
2021/10/27 08:56:04;;;;;;;14.40;6.75;;;14.70;99.90;;;;;;5037142;28;20033;-91
2021/10/27 08:58:36;;;;;;;10.75;7.10;;;14.70;99.90;;;;;;5040543;28;20124;-92
2021/10/27 09:07:26;;;;;;;11.93;6.72;;;14.90;99.90;;;;;;5037443;28;20493;-91
2021/10/27 09:15:45;;;;;;;12.40;6.85;;;14.90;99.90;;;;;;5032887;28;21924;-92
2021/10/27 09:39:48;;;;;;;11.80;7.45;;;14.60;99.90;;;;;;5035963;28;20033;-92
2021/10/27 10:04:09;;;;;;;12.27;7.97;;;15.30;99.90;;;;;;5053760;28;20075;-91
2021/10/27 10:06:40;;;;;;;10.00;6.57;;;15.40;99.90;;;;;;5022407;28;20021;-90
2021/10/27 10:09:07;;;;;;;14.55;7.78;;;15.50;99.90;;;;;;5038046;28;20037;-91
2021/10/27 10:11:33;;;;;;;13.73;6.88;;;15.40;99.90;;;;;;5043832;28;20032;-93
2021/10/27 10:14:05;;;;;;;10.55;6.75;;;15.50;99.90;;;;;;5047106;28;20030;-93
2021/10/27 10:16:40;;;;;;;12.77;7.55;;;15.60;99.90;;;;;;5052316;28;20025;-92
2021/10/27 10:19:12;;;;;;;15.68;7.30;;;15.70;99.90;;;;;;5055635;28;20052;-92
2021/10/27 10:21:41;;;;;;;7.75;6.05;;;15.80;99.90;;;;;;5038606;28;20396;-92
2021/10/27 10:24:25;;;;;;;12.20;5.93;;;15.80;99.90;;;;;;5037686;28;20416;-91
2021/10/27 10:26:52;;;;;;;9.35;6.40;;;15.80;99.90;;;;;;5035418;28;20018;-90
2021/10/27 10:32:27;;;;;;;15.07;6.53;;;15.90;99.90;;;;;;5054780;28;20033;-91
2021/10/27 10:34:56;;;;;;;12.85;6.03;;;15.90;99.90;;;;;;5036940;28;20032;-91
2021/10/27 10:37:35;;;;;;;10.27;5.80;;;15.90;99.90;;;;;;5036825;28;20029;-90
2021/10/27 10:45:53;;;;;;;10.07;5.83;;;16.10;99.90;;;;;;5054523;28;20477;-90
2021/10/27 11:00:15;;;;;;;7.10;4.82;;;16.40;99.90;;;;;;5053483;28;20053;-92
2021/10/27 11:38:37;;;;;;;8.80;4.45;;;16.70;99.20;;;;;;5056349;28;20068;-91
2021/10/27 11:41:14;;;;;;;8.63;3.97;;;16.80;99.10;;;;;;5055637;28;20017;-92
2021/10/27 11:43:57;;;;;;;8.88;4.05;;;16.80;99.00;;;;;;5038711;28;20060;-91
2021/10/27 11:46:40;;;;;;;5.97;3.95;;;16.80;98.90;;;;;;5038751;28;20120;-88
2021/10/27 11:49:10;;;;;;;8.60;4.30;;;16.60;98.90;;;;;;5053346;28;20045;-87
2021/10/27 11:51:35;;;;;;;7.50;3.97;;;16.70;99.20;;;;;;5038330;28;20037;-94
2021/10/27 11:54:11;;;;;;;8.52;4.70;;;16.70;99.40;;;;;;5048785;28;20028;-92
2021/10/27 11:56:37;;;;;;;7.72;4.88;;;16.70;99.30;;;;;;5037976;28;20116;-93
2021/10/27 11:59:02;;;;;;;8.38;5.15;;;16.70;99.30;;;;;;5038055;28;20045;-89
2021/10/27 12:01:49;;;;;;;8.57;5.20;;;16.70;99.30;;;;;;5047905;28;20049;-84
2021/10/27 12:04:16;;;;;;;9.75;4.82;;;16.80;99.30;;;;;;5052481;28;20033;-84
2021/10/27 12:14:54;;;;;;;12.60;5.25;;;17.00;98.90;;;;;;5053264;28;20103;-94
2021/10/27 12:17:34;;;;;;;7.22;4.53;;;17.00;98.80;;;;;;5015709;28;20421;-93
2021/10/27 12:19:59;;;;;;;7.90;4.95;;;17.10;98.50;;;;;;5026123;28;20507;-94
2021/10/27 12:22:25;;;;;;;6.22;4.35;;;17.10;98.30;;;;;;5036071;28;20061;-95
2021/10/27 12:25:01;;;;;;;9.43;4.80;;;17.10;98.20;;;;;;5037064;28;20400;-92
2021/10/27 12:27:37;;;;;;;9.20;5.68;;;17.10;98.30;;;;;;5034819;28;20025;-93
2021/10/27 12:30:08;;;;;;;5.65;4.72;;;17.10;98.40;;;;;;5041468;28;20027;-92
2021/10/27 12:32:34;;;;;;;7.68;4.85;;;17.20;98.20;;;;;;5035109;28;20037;-92
2021/10/27 12:35:12;;;;;;;7.40;4.88;;;17.10;98.10;;;;;;5051536;28;20108;-92
2021/10/27 12:37:47;;;;;;;9.20;5.75;;;17.20;98.10;;;;;;5052184;28;20389;-92
2021/10/27 12:40:30;;;;;;;7.97;4.25;;;17.20;98.00;;;;;;5035224;28;20021;-91
2021/10/27 12:43:10;;;;;;;6.82;4.47;;;17.20;97.70;;;;;;5036037;28;20040;-92
2021/10/27 12:45:42;;;;;;;8.60;4.82;;;17.10;97.20;;;;;;5050617;28;20052;-91
2021/10/27 12:48:14;;;;;;;9.80;4.45;;;17.00;97.50;;;;;;5057043;28;20040;-91
2021/10/27 12:51:03;;;;;;;10.85;5.28;;;17.00;97.70;;;;;;5034806;28;20520;-86
2021/10/27 12:53:35;;;;;;;8.77;5.53;;;16.90;97.70;;;;;;5029993;28;20090;-92
2021/10/27 12:56:15;;;;;;;8.63;5.57;;;16.90;97.80;;;;;;5040359;28;20017;-92
2021/10/27 12:58:55;;;;;;;8.98;4.38;;;16.90;97.80;;;;;;5052085;28;20028;-92
2021/10/27 13:04:13;;;;;;;10.68;5.00;;;16.90;97.90;;;;;;5032938;28;20022;-92
2021/10/27 13:14:31;;;;;;;9.85;4.40;;;17.20;96.90;;;;;;5034186;28;20385;-86
2021/10/27 13:22:29;;;;;;;7.07;3.20;;;17.20;96.90;;;;;;5035425;28;20021;-93
2021/10/27 13:30:31;;;;;;;6.95;3.95;;;17.10;96.60;;;;;;5037531;28;20043;-91
2021/10/27 13:32:59;;;;;;;7.75;3.63;;;17.00;96.80;;;;;;5038732;28;20040;-93
2021/10/27 13:35:25;;;;;;;7.05;3.55;;;17.00;97.00;;;;;;5048755;28;20017;-92
2021/10/27 13:37:51;;;;;;;9.45;4.18;;;17.00;96.70;;;;;;5035042;28;20115;-91
2021/10/27 13:40:17;;;;;;;8.10;3.05;;;17.10;96.80;;;;;;5045434;28;20025;-92
2021/10/27 13:42:52;;;;;;;8.45;3.85;;;17.20;96.70;;;;;;5048087;28;20056;-95
2021/10/27 13:45:26;;;;;;;8.95;3.03;;;17.20;96.40;;;;;;5038747;28;20374;-93
2021/10/27 14:05:59;;;;;;;7.90;3.45;;;17.10;96.60;;;;;;5055425;28;20033;-94
2021/10/27 14:06:57;;;;;;;7.15;3.17;;;17.10;96.80;;;;;;5055868;28;20047;-92
2021/10/27 14:09:35;;;;;;;9.75;3.03;;;17.20;96.30;;;;;;5032641;28;20032;-92
2021/10/27 14:12:39;;;;;;;8.32;3.05;;;17.10;96.20;;;;;;5046681;28;20099;-92
2021/10/27 14:20:28;;;;;;;6.10;2.90;;;17.10;96.30;;;;;;5052637;28;20461;-93
2021/10/27 14:39:36;;;;;;;8.10;4.10;;;17.00;96.40;;;;;;5043195;28;20115;-92
2021/10/27 14:50:53;;;;;;;5.03;2.63;;;16.80;96.60;;;;;;5055682;28;20036;-94
2021/10/27 15:20:34;;;;;;;6.03;2.10;;;16.40;97.50;;;;;;5055317;28;20400;-93
2021/10/27 15:23:08;;;;;;;7.25;1.95;;;16.40;97.70;;;;;;5038591;28;20588;-94
2021/10/27 15:28:41;;;;;;;6.03;1.60;;;16.30;97.90;;;;;;5041720;28;20033;-92
2021/10/27 15:31:26;;;;;;;10.23;2.17;;;16.20;97.90;;;;;;5023305;28;20056;-92
2021/10/27 15:34:05;;;;;;;5.93;2.30;;;16.20;98.00;;;;;;5055418;28;20120;-92
2021/10/27 15:42:28;;;;;;;6.10;2.67;;;15.90;98.50;;;;;;5056993;28;20027;-91
2021/10/27 15:45:06;;;;;;;4.90;2.35;;;15.80;98.70;;;;;;5037488;28;20689;-92
2021/10/27 15:50:37;;;;;;;5.50;1.75;;;15.60;99.20;;;;;;4984800;28;20130;-92
2021/10/27 15:53:04;;;;;;;4.55;1.95;;;15.50;99.40;;;;;;5017204;28;20096;-92
2021/10/27 15:55:29;;;;;;;5.95;2.13;;;15.40;99.60;;;;;;5060313;28;20029;-91
2021/10/27 15:57:55;;;;;;;4.75;2.03;;;15.30;99.80;;;;;;5038545;28;20094;-91
2021/10/27 16:00:22;;;;;;;8.77;2.70;;;15.20;99.90;;;;;;5037162;28;20602;-92
2021/10/27 16:02:48;;;;;;;4.70;1.98;;;15.10;99.90;;;;;;5031306;28;20054;-93
2021/10/27 16:05:14;;;;;;;8.23;2.58;;;15.00;99.90;;;;;;5045943;28;20031;-93
2021/10/27 16:07:43;;;;;;;7.00;2.60;;;15.00;99.90;;;;;;5031594;28;20044;-93
2021/10/27 16:10:19;;;;;;;7.20;2.33;;;14.90;99.90;;;;;;5032278;28;20926;-91
2021/10/27 16:12:46;;;;;;;8.45;2.22;;;14.80;99.90;;;;;;5031459;28;20052;-92
2021/10/27 16:15:36;;;;;;;5.53;2.03;;;14.70;99.90;;;;;;5033460;28;20026;-93
2021/10/27 16:18:07;;;;;;;9.75;2.13;;;14.60;99.90;;;;;;5019135;28;20561;-92
2021/10/27 16:20:35;;;;;;;8.05;2.17;;;14.50;99.90;;;;;;5030979;28;20064;-92
2021/10/27 16:23:02;;;;;;;5.72;2.30;;;14.50;99.90;;;;;;5028147;28;20029;-92
2021/10/27 16:25:27;;;;;;;7.20;3.05;;;14.40;99.90;;;;;;5032695;28;20033;-92
2021/10/27 16:27:53;;;;;;;6.75;2.47;;;14.30;99.90;;;;;;5041210;28;20025;-92
2021/10/27 16:30:21;;;;;;;6.60;2.80;;;14.20;99.90;;;;;;5032156;28;22401;-91
2021/10/27 16:32:47;;;;;;;7.90;2.95;;;14.20;99.90;;;;;;5056362;28;20035;-92
2021/10/27 16:35:13;;;;;;;16.38;3.15;;;14.10;99.90;;;;;;5032966;28;20104;-92
2021/10/27 16:37:39;;;;;;;5.28;2.47;;;14.00;99.90;;;;;;5032291;28;20025;-92
2021/10/27 16:40:05;;;;;;;5.13;2.85;;;14.00;99.90;;;;;;5031215;28;20060;-91
2021/10/27 16:42:33;;;;;;;7.05;2.70;;;13.90;99.90;;;;;;5030928;28;20055;-91
2021/10/27 16:44:58;;;;;;;6.80;3.22;;;13.80;99.90;;;;;;5031954;28;20029;-92
2021/10/27 16:47:24;;;;;;;6.15;3.20;;;13.70;99.90;;;;;;5030961;28;20358;-92
2021/10/27 16:49:50;;;;;;;4.68;3.00;;;13.70;99.90;;;;;;5030217;28;20030;-92
2021/10/27 16:52:16;;;;;;;10.55;3.08;;;13.60;99.90;;;;;;5035507;28;20573;-92
2021/10/27 16:54:43;;;;;;;7.90;3.90;;;13.50;99.90;;;;;;5033826;28;20033;-91
2021/10/27 16:57:09;;;;;;;6.28;2.78;;;13.40;99.90;;;;;;5031308;28;20392;-91
2021/10/27 16:59:35;;;;;;;5.30;2.60;;;13.40;99.90;;;;;;5031190;28;20024;-92
2021/10/27 17:02:03;;;;;;;6.43;3.05;;;13.30;99.90;;;;;;5020063;28;20540;-92
2021/10/27 17:04:29;;;;;;;7.70;3.53;;;13.30;99.90;;;;;;4999682;28;20061;-92
2021/10/27 17:06:57;;;;;;;3.65;2.95;;;13.30;99.90;;;;;;5007817;28;20033;-92
2021/10/27 17:09:24;;;;;;;6.18;3.05;;;13.20;99.90;;;;;;5013176;28;20504;-91
2021/10/27 17:11:50;;;;;;;7.97;3.15;;;13.20;99.90;;;;;;5017505;28;20575;-93
2021/10/27 17:14:16;;;;;;;7.45;3.20;;;13.20;99.90;;;;;;5007224;28;20080;-92